Jacksonport, Wisconsin
Current Conditions -  °F | °C
As of 4:35 PM on Monday 26 Jan 2015 (Local Time) from KSUE Reporting Station
Overcast Overcast  
Wind Chill: 15°   Ceiling: 900
Heat Index: 25°   Visibility: 9mi
Dew Point: 19°   Wind: 9mph
Humidity: 80%   Direction: 130°SE
Pressure: 29.89"   Gusts: NA
Location:  44.7888°N, 87.4464°W
Report Text: KSUE 262235Z AUTO 13008KT 9SM OVC009 M04/M07 A2989 RMK AO1
Loading
Personal Weather Stations






























Interactive Weather Map New forecast layout! Learn more

10-Day Weather Forecast

Advertisements
Track Severe Weather on mobile